首页
METAR-TAF:

METAR-TAF

机场 :

直布羅陀機場

直布罗陀, 直布罗陀

纬度: 36-09N, 经度: 005-21W, 海拔: 5米

当前天气观测

该预报发布于56分钟前的07:50 UTC
风速13节,风向西转西北
温度 23°C
湿度 69%
气压 1015 hPa
能见度10公里或以上
少量云层高于2000英尺

METAR: LXGB 140750Z 29013KT 9999 FEW020 23/17 Q1015 NOSIG

时间: 10:46 (08:46 UTC)

预报

该预报发布于1小时和15分钟前的07:31 UTC
预报有效从14日的 09点(UTC)到 14日的 18点(UTC)
风速12节,风向西
能见度10公里或以上
少量云层高于3000英尺
短暂存在
从 14日的 09点(UTC)到 14日的 18点(UTC)
风速13节,风向南转西南
几率 30% :
短暂存在
从 14日的 10点(UTC)到 14日的 17点(UTC)
风速15节,风向,有时为25节阵风

TAF: LXGB 140731Z 1409/1418 27012KT 9999 FEW030 TEMPO 1409/1418 21013KT 520001 PROB30 TEMPO 1410/1417 19015G25KT 530001

超过4000个机场的气象观测和天气预报(METAR&TAF报告)。

可查询的气象台以黄色和红色小点在地图上表示。

将鼠标移到小点上方,可查看气象台名称。

然后点击查看天气观测和预报。

如需切换地图:点击带黑十字的绿色按钮放大地图;点击带横线的绿色按钮缩小地图;或者点击绿色箭头查看邻近地区的地图。


METAR-TAF: